createdAt,value
2017-12-31T00:01:06.139Z,20.57
2017-12-31T00:03:33.711Z,12.60
2017-12-31T00:06:01.284Z,22.37
2017-12-31T00:08:28.800Z,15.83
2017-12-31T00:10:56.350Z,15.93
2017-12-31T00:13:24.631Z,15.33
2017-12-31T00:15:52.941Z,19.77
2017-12-31T00:18:20.451Z,8.70
2017-12-31T00:20:48.004Z,10.70
2017-12-31T00:23:15.551Z,17.67
2017-12-31T00:25:43.867Z,12.57
2017-12-31T00:28:11.382Z,20.90
2017-12-31T00:30:38.960Z,15.10
2017-12-31T00:33:06.475Z,18.10
2017-12-31T00:35:33.987Z,12.27
2017-12-31T00:38:01.532Z,15.10
2017-12-31T00:40:29.041Z,17.77
2017-12-31T00:42:56.609Z,18.53
2017-12-31T00:45:24.129Z,13.57
2017-12-31T00:47:51.672Z,11.73
2017-12-31T00:50:19.966Z,14.73
2017-12-31T00:52:48.285Z,7.43
2017-12-31T00:55:15.787Z,9.53
2017-12-31T00:57:43.300Z,15.07
2017-12-31T01:00:10.851Z,14.20
2017-12-31T01:02:38.378Z,12.07
2017-12-31T01:05:05.927Z,10.53
2017-12-31T01:07:33.444Z,14.53
2017-12-31T01:10:00.991Z,12.10
2017-12-31T01:12:28.500Z,12.40
2017-12-31T01:14:56.039Z,8.50
2017-12-31T01:17:23.554Z,11.57
2017-12-31T01:19:51.135Z,8.40
2017-12-31T01:22:18.652Z,10.03
2017-12-31T01:24:46.159Z,6.97
2017-12-31T01:27:13.705Z,3.33
2017-12-31T01:29:41.216Z,6.70
2017-12-31T01:32:08.763Z,4.83
2017-12-31T01:34:36.271Z,5.17
2017-12-31T01:37:04.582Z,4.60
2017-12-31T01:39:33.042Z,7.10
2017-12-31T01:42:00.591Z,4.57
2017-12-31T01:44:28.102Z,5.77
2017-12-31T01:46:56.424Z,10.40
2017-12-31T01:49:23.936Z,6.20
2017-12-31T01:51:52.321Z,0.70
2017-12-31T01:54:19.867Z,2.37
2017-12-31T01:56:47.387Z,2.00
2017-12-31T01:59:15.701Z,4.80
2017-12-31T02:01:43.209Z,4.63
2017-12-31T02:04:10.748Z,5.20
2017-12-31T02:06:38.273Z,1.83
2017-12-31T02:09:05.811Z,6.27
2017-12-31T02:14:24.716Z,6.77
2017-12-31T02:16:52.219Z,1.77
2017-12-31T02:19:20.471Z,5.40
2017-12-31T02:21:48.008Z,1.30
2017-12-31T02:24:15.505Z,1.37
2017-12-31T02:26:43.056Z,2.00
2017-12-31T02:29:11.325Z,3.23
2017-12-31T02:31:38.871Z,2.00
2017-12-31T02:34:06.407Z,2.27
2017-12-31T02:36:33.967Z,4.63
2017-12-31T02:39:01.481Z,3.93
2017-12-31T02:41:29.030Z,3.10
2017-12-31T02:43:56.537Z,1.27
2017-12-31T02:46:24.123Z,3.67
2017-12-31T02:48:51.628Z,2.27
2017-12-31T02:51:19.898Z,4.30
2017-12-31T02:53:47.448Z,1.67
2017-12-31T02:56:14.956Z,1.93
2017-12-31T02:58:43.274Z,1.73
2017-12-31T03:01:10.780Z,3.40
2017-12-31T03:03:38.321Z,2.93
2017-12-31T03:06:05.831Z,2.87
2017-12-31T03:08:33.391Z,3.90
2017-12-31T03:11:00.898Z,4.37
2017-12-31T03:13:28.411Z,4.60
2017-12-31T03:15:55.959Z,3.90
2017-12-31T03:18:23.483Z,3.80
2017-12-31T03:20:51.030Z,7.40
2017-12-31T03:23:18.536Z,4.60
2017-12-31T03:25:46.084Z,12.70
2017-12-31T03:28:13.591Z,5.43
2017-12-31T03:30:41.138Z,3.80
2017-12-31T03:33:08.639Z,3.87
2017-12-31T03:35:36.187Z,5.90
2017-12-31T03:38:03.698Z,2.60
2017-12-31T03:40:32.691Z,9.87
2017-12-31T03:43:00.241Z,5.20
2017-12-31T03:45:27.755Z,9.47
2017-12-31T03:47:55.309Z,3.30
2017-12-31T03:50:23.582Z,8.40
2017-12-31T03:52:51.123Z,10.37
2017-12-31T03:55:18.631Z,4.40
2017-12-31T03:57:46.207Z,15.17
2017-12-31T04:00:14.486Z,7.97
2017-12-31T04:02:42.007Z,8.53
2017-12-31T04:05:09.567Z,19.47
2017-12-31T04:07:37.088Z,15.17
2017-12-31T04:10:04.628Z,20.70
2017-12-31T04:12:32.141Z,15.03
2017-12-31T04:14:59.696Z,15.13
2017-12-31T04:17:27.209Z,17.33
2017-12-31T04:19:55.530Z,20.07
2017-12-31T04:22:23.060Z,21.73
2017-12-31T04:24:50.615Z,17.33
2017-12-31T04:27:18.135Z,11.03
2017-12-31T04:29:45.687Z,17.60
2017-12-31T04:32:13.963Z,15.40
2017-12-31T04:34:41.523Z,17.47
2017-12-31T04:37:09.029Z,14.73
2017-12-31T04:39:37.315Z,18.87
2017-12-31T04:42:05.625Z,27.00
2017-12-31T04:44:33.134Z,19.70
2017-12-31T04:47:00.689Z,18.80
2017-12-31T04:49:28.190Z,16.03
2017-12-31T04:51:55.742Z,20.80
2017-12-31T04:54:23.266Z,14.97
2017-12-31T04:56:50.803Z,15.07
2017-12-31T04:59:18.309Z,18.57
2017-12-31T05:01:46.618Z,15.00
2017-12-31T05:04:14.141Z,19.20
2017-12-31T05:06:41.972Z,17.53
2017-12-31T05:09:09.494Z,15.67
2017-12-31T05:11:37.020Z,10.23
2017-12-31T05:14:04.616Z,13.77
2017-12-31T05:16:32.128Z,20.53
2017-12-31T05:18:59.670Z,20.73
2017-12-31T05:21:27.179Z,28.60
2017-12-31T05:23:55.516Z,10.00
2017-12-31T05:26:23.035Z,16.70
2017-12-31T05:28:51.322Z,15.53
2017-12-31T05:31:18.872Z,22.07
2017-12-31T05:33:46.383Z,13.53
2017-12-31T05:36:14.705Z,19.47
2017-12-31T05:38:42.220Z,19.03
2017-12-31T05:41:09.771Z,10.47
2017-12-31T05:43:37.291Z,20.60
2017-12-31T05:46:04.864Z,11.57
2017-12-31T05:48:32.374Z,16.10
2017-12-31T05:50:59.935Z,14.93
2017-12-31T05:53:27.459Z,13.40
2017-12-31T05:55:54.988Z,8.93
2017-12-31T05:58:22.540Z,14.33
2017-12-31T06:00:50.067Z,11.40
2017-12-31T06:03:17.623Z,16.43
2017-12-31T06:05:45.184Z,8.80
2017-12-31T06:08:12.742Z,8.43
2017-12-31T06:10:40.261Z,12.83
2017-12-31T06:13:08.572Z,9.40
2017-12-31T06:15:36.083Z,15.47
2017-12-31T06:18:03.667Z,12.37
2017-12-31T06:20:31.188Z,20.17
2017-12-31T06:22:58.700Z,11.50
2017-12-31T06:25:26.303Z,10.13
2017-12-31T06:27:53.827Z,14.27
2017-12-31T06:30:21.435Z,13.60
2017-12-31T06:32:48.939Z,6.57
2017-12-31T06:35:17.253Z,7.00
2017-12-31T06:37:44.761Z,8.70
2017-12-31T06:40:12.335Z,8.90
2017-12-31T06:42:39.846Z,9.27
2017-12-31T06:45:08.122Z,8.03
2017-12-31T06:47:35.750Z,9.07
2017-12-31T06:50:03.268Z,9.27
2017-12-31T06:52:30.819Z,15.70
2017-12-31T06:54:58.327Z,12.27
2017-12-31T06:57:25.872Z,7.57
2017-12-31T06:59:53.388Z,6.13
2017-12-31T07:02:20.939Z,12.83
2017-12-31T07:04:49.258Z,6.80
2017-12-31T07:07:16.759Z,12.80
2017-12-31T07:09:44.308Z,9.93
2017-12-31T07:12:11.811Z,6.50
2017-12-31T07:14:39.368Z,14.53
2017-12-31T07:17:06.879Z,9.93
2017-12-31T07:19:35.220Z,9.93
2017-12-31T07:22:02.728Z,8.17
2017-12-31T07:24:30.291Z,11.33
2017-12-31T07:26:57.807Z,4.00
2017-12-31T07:29:25.368Z,6.47
2017-12-31T07:31:53.651Z,11.40
2017-12-31T07:34:22.949Z,6.83
2017-12-31T07:36:50.512Z,9.03
2017-12-31T07:39:18.023Z,9.40
2017-12-31T07:41:45.579Z,6.57
2017-12-31T07:44:13.084Z,6.10
2017-12-31T07:46:40.636Z,5.83
2017-12-31T07:49:08.171Z,12.37
2017-12-31T07:51:35.718Z,8.50
2017-12-31T07:54:03.231Z,5.60
2017-12-31T07:56:31.348Z,7.30
2017-12-31T07:58:58.861Z,9.00
2017-12-31T08:01:26.419Z,8.10
2017-12-31T08:03:53.931Z,8.63
2017-12-31T08:06:21.444Z,5.47
2017-12-31T08:08:49.002Z,7.10
2017-12-31T08:11:16.534Z,10.33
2017-12-31T08:13:44.083Z,9.17
2017-12-31T08:16:11.631Z,13.00
2017-12-31T08:18:39.179Z,5.60
2017-12-31T08:21:06.685Z,8.43
2017-12-31T08:23:34.237Z,4.73
2017-12-31T08:26:01.767Z,12.53
2017-12-31T08:28:29.322Z,3.73
2017-12-31T08:30:56.827Z,6.30
2017-12-31T08:33:25.112Z,5.07
2017-12-31T08:35:52.667Z,6.67
2017-12-31T08:38:20.180Z,8.00
2017-12-31T08:40:47.733Z,9.47
2017-12-31T08:43:16.019Z,10.60
2017-12-31T08:45:44.510Z,6.90
2017-12-31T08:48:12.099Z,10.30
2017-12-31T08:50:39.641Z,9.97
2017-12-31T08:53:07.160Z,7.90
2017-12-31T08:55:34.732Z,11.87
2017-12-31T08:58:02.252Z,8.67
2017-12-31T09:00:29.876Z,8.27
2017-12-31T09:02:57.431Z,10.73
2017-12-31T09:05:24.961Z,6.70
2017-12-31T09:07:52.495Z,9.07
2017-12-31T09:10:20.012Z,6.20
2017-12-31T09:12:47.568Z,11.40
2017-12-31T09:15:15.067Z,8.40
2017-12-31T09:17:42.619Z,24.60
2017-12-31T09:20:10.118Z,7.53
2017-12-31T09:22:37.667Z,16.37
2017-12-31T09:25:05.184Z,11.70
2017-12-31T09:27:32.748Z,10.17
2017-12-31T09:30:01.039Z,8.10
2017-12-31T09:32:28.629Z,9.07
2017-12-31T09:34:57.925Z,8.97
2017-12-31T09:37:26.210Z,10.83
2017-12-31T09:39:53.764Z,9.40
2017-12-31T09:42:21.291Z,11.20
2017-12-31T09:44:48.879Z,9.17
2017-12-31T09:47:16.398Z,6.80
2017-12-31T09:49:43.947Z,10.07
2017-12-31T09:52:11.499Z,3.83
2017-12-31T09:54:39.048Z,6.10
2017-12-31T09:57:06.560Z,5.07
2017-12-31T09:59:34.095Z,9.20
2017-12-31T10:02:01.642Z,5.40
2017-12-31T10:04:29.945Z,8.50
2017-12-31T10:06:57.488Z,8.00
2017-12-31T10:09:24.999Z,7.30
2017-12-31T10:11:52.574Z,9.10
2017-12-31T10:14:20.075Z,5.33
2017-12-31T10:16:47.600Z,9.23
2017-12-31T10:19:15.139Z,7.90
2017-12-31T10:21:42.643Z,4.10
2017-12-31T10:24:10.191Z,6.00
2017-12-31T10:26:37.696Z,6.70
2017-12-31T10:29:05.241Z,6.73
2017-12-31T10:31:33.518Z,3.93
2017-12-31T10:34:01.023Z,6.70
2017-12-31T10:36:28.602Z,6.33
2017-12-31T10:38:56.107Z,7.83
2017-12-31T10:41:23.646Z,5.77
2017-12-31T10:43:51.159Z,7.30
2017-12-31T10:46:18.709Z,3.73
2017-12-31T10:48:46.211Z,4.93
2017-12-31T10:51:13.808Z,5.40
2017-12-31T10:53:42.095Z,3.37
2017-12-31T10:56:10.419Z,3.93
2017-12-31T10:58:37.928Z,8.23
2017-12-31T11:01:05.441Z,9.13
2017-12-31T11:03:32.996Z,3.93
2017-12-31T11:06:01.271Z,8.77
2017-12-31T11:08:28.823Z,5.07
2017-12-31T11:10:56.333Z,4.13
2017-12-31T11:13:25.412Z,6.87
2017-12-31T11:15:52.930Z,5.73
2017-12-31T11:18:20.487Z,4.40
2017-12-31T11:20:47.996Z,5.90
2017-12-31T11:23:15.523Z,1.90
2017-12-31T11:25:43.831Z,2.20
2017-12-31T11:28:11.348Z,5.20
2017-12-31T11:30:38.890Z,7.00
2017-12-31T11:33:06.427Z,4.97
2017-12-31T11:35:33.989Z,3.20
2017-12-31T11:38:01.510Z,18.10
2017-12-31T11:40:29.067Z,3.47
2017-12-31T11:42:56.573Z,5.90
2017-12-31T11:45:24.123Z,1.73
2017-12-31T11:47:51.650Z,2.30
2017-12-31T11:50:19.983Z,2.33
2017-12-31T11:52:47.496Z,5.90
2017-12-31T11:55:15.076Z,3.60
2017-12-31T11:57:42.596Z,4.87
2017-12-31T12:00:10.163Z,1.33
2017-12-31T12:02:37.669Z,2.87
2017-12-31T12:05:05.175Z,5.40
2017-12-31T12:07:32.718Z,2.87
2017-12-31T12:10:00.231Z,5.30
2017-12-31T12:12:27.780Z,6.83
2017-12-31T12:14:55.300Z,5.27
2017-12-31T12:17:22.860Z,5.83
2017-12-31T12:19:50.363Z,8.07
2017-12-31T12:22:17.906Z,7.00
2017-12-31T12:24:45.415Z,2.30
2017-12-31T12:27:12.963Z,2.33
2017-12-31T12:29:40.475Z,4.80
2017-12-31T12:32:08.024Z,3.57
2017-12-31T12:34:35.537Z,2.67
2017-12-31T12:37:03.107Z,7.03
2017-12-31T12:39:30.628Z,2.63
2017-12-31T12:41:58.197Z,3.87
2017-12-31T12:44:25.707Z,3.87
2017-12-31T12:46:53.215Z,3.43
2017-12-31T12:49:21.523Z,1.83
2017-12-31T12:51:49.027Z,8.67
2017-12-31T12:54:16.581Z,7.60
2017-12-31T12:56:44.088Z,3.60
2017-12-31T12:59:11.641Z,10.87
2017-12-31T13:01:39.147Z,7.37
2017-12-31T13:04:07.680Z,4.03
2017-12-31T13:06:35.191Z,7.90
2017-12-31T13:09:02.743Z,4.33
2017-12-31T13:11:30.259Z,4.10
2017-12-31T13:13:57.808Z,2.93
2017-12-31T13:16:25.316Z,3.30
2017-12-31T13:18:53.596Z,8.30
2017-12-31T13:21:21.143Z,3.43
2017-12-31T13:23:48.667Z,4.80
2017-12-31T13:26:16.209Z,2.37
2017-12-31T13:28:44.483Z,3.03
2017-12-31T13:31:12.093Z,1.40
2017-12-31T13:33:39.613Z,4.00
2017-12-31T13:36:07.164Z,3.43
2017-12-31T13:38:34.665Z,2.50
2017-12-31T13:41:02.211Z,4.30
2017-12-31T13:43:29.721Z,4.30
2017-12-31T13:45:57.288Z,6.10
2017-12-31T13:48:24.905Z,4.57
2017-12-31T13:50:52.411Z,5.50
2017-12-31T13:53:21.268Z,3.50
2017-12-31T13:55:49.540Z,2.50
2017-12-31T13:58:17.077Z,2.60
2017-12-31T14:00:44.589Z,7.17
2017-12-31T14:03:12.896Z,3.23
2017-12-31T14:05:40.399Z,4.80
2017-12-31T14:08:07.960Z,3.40
2017-12-31T14:10:35.482Z,6.73
2017-12-31T14:13:02.995Z,3.47
2017-12-31T14:15:30.552Z,5.00
2017-12-31T14:17:58.068Z,2.97
2017-12-31T14:20:25.611Z,4.67
2017-12-31T14:22:53.118Z,2.30
2017-12-31T14:25:20.688Z,4.87
2017-12-31T14:27:48.199Z,1.97
2017-12-31T14:30:16.509Z,6.47
2017-12-31T14:32:44.018Z,1.40
2017-12-31T14:35:11.597Z,1.93
2017-12-31T14:37:39.162Z,3.60
2017-12-31T14:40:06.693Z,2.77
2017-12-31T14:42:34.243Z,5.70
2017-12-31T14:45:02.515Z,4.20
2017-12-31T14:47:30.065Z,3.60
2017-12-31T14:49:57.571Z,2.63
2017-12-31T14:52:25.115Z,3.50
2017-12-31T14:54:52.623Z,4.33
2017-12-31T14:57:20.180Z,3.87
2017-12-31T14:59:47.690Z,2.00
2017-12-31T15:02:15.255Z,2.70
2017-12-31T15:04:43.499Z,1.80
2017-12-31T15:07:11.010Z,7.87
2017-12-31T15:09:39.323Z,1.10
2017-12-31T15:12:06.841Z,4.77
2017-12-31T15:14:34.387Z,2.63
2017-12-31T15:17:01.927Z,3.43
2017-12-31T15:19:29.479Z,3.37
2017-12-31T15:21:56.991Z,1.87
2017-12-31T15:24:24.553Z,1.13
2017-12-31T15:26:52.055Z,1.20
2017-12-31T15:29:19.567Z,5.33
2017-12-31T15:31:47.890Z,1.60
2017-12-31T15:34:15.392Z,4.20
2017-12-31T15:36:42.942Z,4.60
2017-12-31T15:39:10.459Z,3.93
2017-12-31T15:41:38.016Z,2.83
2017-12-31T15:44:05.519Z,4.67
2017-12-31T15:46:33.823Z,5.10
2017-12-31T15:49:01.331Z,2.50
2017-12-31T15:51:28.900Z,5.70
2017-12-31T15:53:56.455Z,6.17
2017-12-31T15:56:23.963Z,3.97
2017-12-31T15:58:51.566Z,1.50
2017-12-31T16:01:19.098Z,3.23
2017-12-31T16:03:46.647Z,4.17
2017-12-31T16:06:14.147Z,2.93
2017-12-31T16:08:41.694Z,4.53
2017-12-31T16:11:09.207Z,2.17
2017-12-31T16:13:36.755Z,1.50
2017-12-31T16:16:04.269Z,6.20
2017-12-31T16:18:32.592Z,6.53
2017-12-31T16:21:00.256Z,1.30
2017-12-31T16:23:27.820Z,6.00
2017-12-31T16:25:55.456Z,2.30
2017-12-31T16:28:22.968Z,5.57
2017-12-31T16:30:50.525Z,3.13
2017-12-31T16:33:18.798Z,1.83
2017-12-31T16:35:46.339Z,4.33
2017-12-31T16:38:13.859Z,4.10
2017-12-31T16:40:42.171Z,4.07
2017-12-31T16:43:09.680Z,4.30
2017-12-31T16:45:37.223Z,3.10
2017-12-31T16:48:04.728Z,4.80
2017-12-31T16:50:32.285Z,2.60
2017-12-31T16:52:59.791Z,3.13
2017-12-31T16:55:27.299Z,8.63
2017-12-31T16:57:54.838Z,4.37
2017-12-31T17:00:22.339Z,3.83
2017-12-31T17:02:50.655Z,2.40
2017-12-31T17:05:18.159Z,1.07
2017-12-31T17:07:45.708Z,2.23
2017-12-31T17:10:13.223Z,2.10
2017-12-31T17:12:41.531Z,4.33
2017-12-31T17:15:09.470Z,4.80
2017-12-31T17:17:37.028Z,3.60
2017-12-31T17:20:04.547Z,1.20
2017-12-31T17:22:32.823Z,1.80
2017-12-31T17:25:01.180Z,5.00
2017-12-31T17:27:29.455Z,8.53
2017-12-31T17:29:56.994Z,1.50
2017-12-31T17:32:24.502Z,2.77
2017-12-31T17:34:52.052Z,5.87
2017-12-31T17:37:19.558Z,4.70
2017-12-31T17:39:47.104Z,4.10
2017-12-31T17:42:14.617Z,1.70
2017-12-31T17:44:42.182Z,4.80
2017-12-31T17:47:09.735Z,3.20
2017-12-31T17:49:37.242Z,3.87
2017-12-31T17:52:04.799Z,3.70
2017-12-31T17:54:32.303Z,3.10
2017-12-31T17:57:00.635Z,148.93
2017-12-31T17:59:28.187Z,7.10
2017-12-31T18:01:55.857Z,5.50
2017-12-31T18:04:23.372Z,6.47
2017-12-31T18:06:50.912Z,8.10
2017-12-31T18:09:18.419Z,1.50
2017-12-31T18:11:46.740Z,3.90
2017-12-31T18:14:15.024Z,2.50
2017-12-31T18:16:43.359Z,4.40
2017-12-31T18:19:10.875Z,11.80
2017-12-31T18:21:38.446Z,8.30
2017-12-31T18:24:05.950Z,6.10
2017-12-31T18:26:34.225Z,3.23
2017-12-31T18:29:02.539Z,3.60
2017-12-31T18:31:30.047Z,3.10
2017-12-31T18:33:57.590Z,1.90
2017-12-31T18:36:25.111Z,1.50
2017-12-31T18:38:52.960Z,2.70
2017-12-31T18:41:20.483Z,2.27
2017-12-31T18:43:48.795Z,3.13
2017-12-31T18:46:16.310Z,2.50
2017-12-31T18:48:43.865Z,4.47
2017-12-31T18:51:11.375Z,2.20
2017-12-31T18:53:38.882Z,3.60
2017-12-31T18:56:06.651Z,3.27
2017-12-31T18:58:34.929Z,4.70
2017-12-31T19:01:02.471Z,3.70
2017-12-31T19:03:29.984Z,1.50
2017-12-31T19:05:57.531Z,1.00
2017-12-31T19:08:25.050Z,2.40
2017-12-31T19:10:52.607Z,2.50
2017-12-31T19:13:20.114Z,1.23
2017-12-31T19:15:47.665Z,3.50
2017-12-31T19:18:15.187Z,4.73
2017-12-31T19:20:42.730Z,4.93
2017-12-31T19:23:10.246Z,3.83
2017-12-31T19:25:38.584Z,2.93
2017-12-31T19:28:06.094Z,4.00
2017-12-31T19:30:33.594Z,3.20
2017-12-31T19:33:01.146Z,4.83
2017-12-31T19:35:28.653Z,2.63
2017-12-31T19:37:56.194Z,3.10
2017-12-31T19:40:24.476Z,5.27
2017-12-31T19:42:52.019Z,3.27
2017-12-31T19:45:19.532Z,4.20
2017-12-31T19:47:47.847Z,1.60
2017-12-31T19:50:15.358Z,1.40
2017-12-31T19:52:42.914Z,1.90
2017-12-31T19:55:10.419Z,2.77
2017-12-31T19:57:37.962Z,3.90
2017-12-31T20:00:05.471Z,2.13
2017-12-31T20:02:33.064Z,2.93
2017-12-31T20:05:01.411Z,1.10
2017-12-31T20:07:28.915Z,1.50
2017-12-31T20:09:57.227Z,2.83
2017-12-31T20:12:24.732Z,1.03
2017-12-31T20:14:52.278Z,3.03
2017-12-31T20:17:19.791Z,2.33
2017-12-31T20:19:47.327Z,1.20
2017-12-31T20:22:14.827Z,1.80
2017-12-31T20:24:42.395Z,1.33
2017-12-31T20:27:09.906Z,1.20
2017-12-31T20:29:37.570Z,1.30
2017-12-31T20:32:05.151Z,0.93
2017-12-31T20:34:33.426Z,3.47
2017-12-31T20:37:00.966Z,1.00
2017-12-31T20:39:28.473Z,4.13
2017-12-31T20:41:56.017Z,2.40
2017-12-31T20:44:23.578Z,3.87
2017-12-31T20:46:51.132Z,3.53
2017-12-31T20:49:18.636Z,2.07
2017-12-31T20:51:46.179Z,1.03
2017-12-31T20:54:13.687Z,2.37
2017-12-31T20:56:41.235Z,1.53
2017-12-31T20:59:08.743Z,1.00
2017-12-31T21:01:37.288Z,1.00
2017-12-31T21:04:04.800Z,1.00
2017-12-31T21:06:32.305Z,0.60
2017-12-31T21:09:00.675Z,1.23
2017-12-31T21:11:28.199Z,35.53
2017-12-31T21:13:55.752Z,18.93
2017-12-31T21:16:23.263Z,10.53
2017-12-31T21:18:50.811Z,16.77
2017-12-31T21:21:18.315Z,2.80
2017-12-31T21:23:45.855Z,8.23
2017-12-31T21:26:13.861Z,2.83
2017-12-31T21:28:41.435Z,1.60
2017-12-31T21:31:08.964Z,1.67
2017-12-31T21:33:36.491Z,1.33
2017-12-31T21:36:04.045Z,2.23
2017-12-31T21:38:31.551Z,1.23
2017-12-31T21:40:59.099Z,1.57
2017-12-31T21:43:26.607Z,0.90
2017-12-31T21:45:54.155Z,0.77
2017-12-31T21:48:21.679Z,0.70
2017-12-31T21:50:49.235Z,1.23
2017-12-31T21:53:17.542Z,1.03
2017-12-31T21:55:45.043Z,0.97
2017-12-31T21:58:12.595Z,0.50
2017-12-31T22:00:40.094Z,0.50
2017-12-31T22:03:07.634Z,1.73
2017-12-31T22:05:35.160Z,0.60
2017-12-31T22:08:02.702Z,1.83
2017-12-31T22:10:30.203Z,1.00
2017-12-31T22:12:57.747Z,1.40
2017-12-31T22:15:25.258Z,2.10
2017-12-31T22:17:53.574Z,1.00
2017-12-31T22:20:21.083Z,1.20
2017-12-31T22:22:48.639Z,1.33
2017-12-31T22:25:16.195Z,0.63
2017-12-31T22:27:44.499Z,1.37
2017-12-31T22:30:12.048Z,0.60
2017-12-31T22:32:39.559Z,1.27
2017-12-31T22:35:07.135Z,1.47
2017-12-31T22:37:34.656Z,0.63
2017-12-31T22:40:02.202Z,0.70
2017-12-31T22:42:29.748Z,1.03
2017-12-31T22:44:57.289Z,2.73
2017-12-31T22:47:24.808Z,3.00
2017-12-31T22:49:52.368Z,1.50
2017-12-31T22:52:19.876Z,1.10
2017-12-31T22:54:48.190Z,1.57
2017-12-31T22:57:15.700Z,6.87
2017-12-31T22:59:43.267Z,9.23
2017-12-31T23:02:10.779Z,68.90
2017-12-31T23:04:38.784Z,202.80
2017-12-31T23:07:06.339Z,454.77
2017-12-31T23:09:33.866Z,546.80
2017-12-31T23:12:01.413Z,93.07
2017-12-31T23:14:29.551Z,85.50
2017-12-31T23:16:57.110Z,73.17
2017-12-31T23:19:24.631Z,107.70
2017-12-31T23:21:52.210Z,41.27
2017-12-31T23:24:19.718Z,29.30
2017-12-31T23:26:47.449Z,54.00
2017-12-31T23:29:14.959Z,45.03
2017-12-31T23:31:42.509Z,24.73
2017-12-31T23:34:10.040Z,18.37
2017-12-31T23:36:38.355Z,21.20
2017-12-31T23:39:05.903Z,19.80
2017-12-31T23:41:34.213Z,11.23
2017-12-31T23:44:01.765Z,16.17
2017-12-31T23:46:29.279Z,10.80
2017-12-31T23:48:56.843Z,8.90
2017-12-31T23:51:24.355Z,9.10
2017-12-31T23:53:51.952Z,15.30
2017-12-31T23:56:19.486Z,10.03
2017-12-31T23:58:47.040Z,10.30
